createdAt,value
2022-11-25T00:01:12.251Z,6.51
2022-11-25T00:03:40.281Z,6.52
2022-11-25T00:06:23.632Z,6.52
2022-11-25T00:09:02.688Z,6.50
2022-11-25T00:11:29.944Z,6.51
2022-11-25T00:13:57.316Z,6.52
2022-11-25T00:16:26.044Z,6.51
2022-11-25T00:18:54.840Z,6.51
2022-11-25T00:21:24.657Z,6.50
2022-11-25T00:23:56.555Z,6.49
2022-11-25T00:26:24.888Z,6.47
2022-11-25T00:28:52.389Z,6.46
2022-11-25T00:31:24.034Z,6.43
2022-11-25T00:33:51.605Z,6.42
2022-11-25T00:36:44.528Z,6.40
2022-11-25T00:39:16.119Z,6.39
2022-11-25T00:42:03.051Z,6.73
2022-11-25T00:44:41.026Z,7.30
2022-11-25T00:47:11.935Z,7.68
2022-11-25T00:49:41.490Z,8.07
2022-11-25T00:52:09.947Z,8.24
2022-11-25T00:54:37.176Z,7.64
2022-11-25T00:57:04.380Z,6.91
2022-11-25T00:59:31.234Z,6.30
2022-11-25T01:01:59.478Z,5.82
2022-11-25T01:04:26.600Z,5.44
2022-11-25T01:06:56.166Z,5.08
2022-11-25T01:09:23.751Z,4.92
2022-11-25T01:11:51.207Z,5.35
2022-11-25T01:14:19.806Z,5.62
2022-11-25T01:16:47.604Z,5.86
2022-11-25T01:19:15.573Z,6.22
2022-11-25T01:21:42.803Z,6.51
2022-11-25T01:24:13.942Z,7.13
2022-11-25T01:26:42.164Z,7.75
2022-11-25T01:29:17.740Z,8.25
2022-11-25T01:31:45.548Z,8.41
2022-11-25T01:34:18.703Z,7.76
2022-11-25T01:36:45.981Z,6.98
2022-11-25T01:39:16.781Z,6.38
2022-11-25T01:41:44.559Z,5.91
2022-11-25T01:44:25.074Z,5.51
2022-11-25T01:47:18.414Z,5.17
2022-11-25T01:49:59.564Z,5.11
2022-11-25T01:52:38.704Z,5.97
2022-11-25T01:55:26.064Z,6.79
2022-11-25T01:58:02.368Z,7.27
2022-11-25T02:00:29.313Z,7.44
2022-11-25T02:02:57.599Z,7.48
2022-11-25T02:05:48.816Z,7.40
2022-11-25T02:08:16.415Z,7.27
2022-11-25T02:10:44.163Z,7.27
2022-11-25T02:13:11.363Z,7.31
2022-11-25T02:15:38.486Z,7.20
2022-11-25T02:18:06.385Z,7.08
2022-11-25T02:20:33.411Z,7.21
2022-11-25T02:23:25.018Z,7.66
2022-11-25T02:25:53.260Z,7.92
2022-11-25T02:28:26.980Z,7.98
2022-11-25T02:30:54.149Z,7.39
2022-11-25T02:33:23.840Z,6.73
2022-11-25T02:36:00.007Z,6.19
2022-11-25T02:38:45.871Z,5.72
2022-11-25T02:41:36.097Z,5.28
2022-11-25T02:44:04.770Z,5.11
2022-11-25T02:46:32.812Z,5.51
2022-11-25T02:49:10.536Z,5.74
2022-11-25T02:51:39.564Z,5.89
2022-11-25T02:54:08.902Z,6.01
2022-11-25T02:56:36.647Z,6.06
2022-11-25T02:59:04.055Z,6.05
2022-11-25T03:01:32.054Z,6.04
2022-11-25T03:03:59.515Z,6.05
2022-11-25T03:06:29.122Z,6.16
2022-11-25T03:08:56.712Z,6.17
2022-11-25T03:11:44.058Z,6.16
2022-11-25T03:14:11.135Z,6.17
2022-11-25T03:16:37.949Z,6.17
2022-11-25T03:19:05.024Z,6.18
2022-11-25T03:21:31.976Z,6.25
2022-11-25T03:23:58.962Z,6.21
2022-11-25T03:26:26.085Z,6.15
2022-11-25T03:28:53.465Z,6.33
2022-11-25T03:31:20.694Z,6.56
2022-11-25T03:33:47.656Z,6.60
2022-11-25T03:36:15.119Z,6.73
2022-11-25T03:38:42.013Z,6.80
2022-11-25T03:41:08.927Z,6.79
2022-11-25T03:43:36.711Z,6.89
2022-11-25T03:46:03.636Z,7.14
2022-11-25T03:48:30.858Z,7.05
2022-11-25T03:50:58.136Z,6.94
2022-11-25T03:53:25.429Z,6.89
2022-11-25T03:55:52.657Z,6.79
2022-11-25T03:58:21.363Z,6.71
2022-11-25T04:00:49.415Z,6.63
2022-11-25T04:03:17.318Z,6.59
2022-11-25T04:05:44.605Z,6.60
2022-11-25T04:08:12.918Z,6.61
2022-11-25T04:10:40.078Z,6.62
2022-11-25T04:13:07.202Z,6.62
2022-11-25T04:15:37.128Z,6.65
2022-11-25T04:18:05.133Z,6.72
2022-11-25T04:20:32.486Z,6.65
2022-11-25T04:23:03.092Z,6.61
2022-11-25T04:25:29.961Z,6.63
2022-11-25T04:27:57.956Z,6.63
2022-11-25T04:30:28.650Z,6.55
2022-11-25T04:32:55.648Z,6.50
2022-11-25T04:35:23.193Z,6.48
2022-11-25T04:37:52.620Z,6.46
2022-11-25T04:40:19.499Z,6.43
2022-11-25T04:42:50.252Z,6.39
2022-11-25T04:45:23.620Z,6.38
2022-11-25T04:47:51.832Z,6.36
2022-11-25T04:50:22.198Z,6.35
2022-11-25T04:52:54.806Z,6.36
2022-11-25T04:55:21.677Z,6.35
2022-11-25T04:57:48.754Z,6.34
2022-11-25T05:00:16.959Z,6.33
2022-11-25T05:02:43.900Z,6.34
2022-11-25T05:05:18.632Z,6.33
2022-11-25T05:07:45.797Z,6.32
2022-11-25T05:10:14.147Z,6.33
2022-11-25T05:12:44.436Z,6.34
2022-11-25T05:15:15.543Z,6.37
2022-11-25T05:17:44.859Z,6.49
2022-11-25T05:20:12.867Z,6.65
2022-11-25T05:22:40.200Z,6.64
2022-11-25T05:25:10.129Z,6.58
2022-11-25T05:27:41.052Z,6.52
2022-11-25T05:30:09.574Z,6.50
2022-11-25T05:32:37.440Z,6.45
2022-11-25T05:35:07.964Z,6.38
2022-11-25T05:37:35.013Z,6.33
2022-11-25T05:40:05.174Z,6.27
2022-11-25T05:43:01.457Z,6.22
2022-11-25T05:45:32.126Z,6.19
2022-11-25T05:47:58.947Z,6.17
2022-11-25T05:50:26.988Z,6.10
2022-11-25T05:53:03.453Z,6.03
2022-11-25T05:55:30.617Z,6.01
2022-11-25T05:57:59.162Z,5.98
2022-11-25T06:00:27.015Z,5.97
2022-11-25T06:02:55.045Z,5.98
2022-11-25T06:05:22.187Z,6.02
2022-11-25T06:07:50.383Z,6.03
2022-11-25T06:10:18.978Z,6.06
2022-11-25T06:12:46.270Z,6.17
2022-11-25T06:15:14.333Z,6.18
2022-11-25T06:17:41.782Z,6.18
2022-11-25T06:20:15.730Z,6.20
2022-11-25T06:22:42.745Z,6.21
2022-11-25T06:25:09.734Z,6.19
2022-11-25T06:28:04.483Z,6.17
2022-11-25T06:30:25.484Z,6.14
2022-11-25T06:33:12.076Z,6.14
2022-11-25T06:35:39.719Z,6.17
2022-11-25T06:38:07.317Z,6.19
2022-11-25T06:40:34.118Z,6.21
2022-11-25T06:43:01.030Z,6.19
2022-11-25T06:45:27.958Z,6.16
2022-11-25T06:47:54.817Z,6.14
2022-11-25T06:50:21.853Z,6.10
2022-11-25T06:52:48.708Z,6.07
2022-11-25T06:55:16.770Z,6.05
2022-11-25T06:57:43.763Z,6.06
2022-11-25T07:00:11.025Z,6.08
2022-11-25T07:02:42.900Z,6.10
2022-11-25T07:05:12.556Z,6.12
2022-11-25T07:07:39.476Z,6.14
2022-11-25T07:10:07.241Z,6.19
2022-11-25T07:12:34.155Z,6.24
2022-11-25T07:15:01.167Z,6.25
2022-11-25T07:17:28.070Z,6.27
2022-11-25T07:19:54.958Z,6.32
2022-11-25T07:22:22.353Z,6.36
2022-11-25T07:24:49.144Z,6.41
2022-11-25T07:27:16.100Z,6.44
2022-11-25T07:30:29.610Z,6.46
2022-11-25T07:32:33.217Z,6.51
2022-11-25T07:35:00.043Z,6.57
2022-11-25T07:37:27.121Z,6.63
2022-11-25T07:39:53.990Z,6.67
2022-11-25T07:42:20.874Z,6.69
2022-11-25T07:44:48.691Z,6.69
2022-11-25T07:47:34.898Z,6.69
2022-11-25T07:50:01.684Z,6.71
2022-11-25T07:52:28.728Z,6.73
2022-11-25T07:54:55.683Z,6.71
2022-11-25T07:57:22.677Z,6.68
2022-11-25T07:59:49.519Z,6.68
2022-11-25T08:02:16.403Z,6.67
2022-11-25T08:04:43.257Z,6.65
2022-11-25T08:07:11.005Z,6.64
2022-11-25T08:09:38.391Z,6.65
2022-11-25T08:12:05.483Z,6.64
2022-11-25T08:14:32.286Z,6.66
2022-11-25T08:16:59.228Z,6.68
2022-11-25T08:19:31.253Z,6.69
2022-11-25T08:21:58.559Z,6.72
2022-11-25T08:24:25.696Z,6.68
2022-11-25T08:26:54.273Z,6.70
2022-11-25T08:29:21.343Z,6.74
2022-11-25T08:31:48.330Z,6.77
2022-11-25T08:34:21.529Z,6.79
2022-11-25T08:36:49.298Z,6.78
2022-11-25T08:42:06.886Z,6.77
2022-11-25T08:44:34.553Z,6.78
2022-11-25T08:47:01.463Z,6.79
2022-11-25T08:49:29.957Z,6.78
2022-11-25T08:51:57.449Z,6.80
2022-11-25T08:54:24.277Z,6.80
2022-11-25T08:56:51.479Z,6.77
2022-11-25T08:59:18.412Z,6.81
2022-11-25T09:01:45.326Z,6.93
2022-11-25T09:04:12.466Z,6.93
2022-11-25T09:06:39.288Z,6.93
2022-11-25T09:09:06.193Z,6.95
2022-11-25T09:11:33.287Z,6.96
2022-11-25T09:14:00.255Z,6.96
2022-11-25T09:16:27.431Z,6.97
2022-11-25T09:18:56.317Z,6.99
2022-11-25T16:17:37.698Z,6.31
2022-11-25T16:20:16.689Z,6.31
2022-11-25T16:22:45.531Z,6.37
2022-11-25T16:25:16.345Z,6.39
2022-11-25T16:27:45.604Z,6.46
2022-11-25T16:30:19.475Z,6.70
2022-11-25T16:32:47.670Z,6.71
2022-11-25T16:35:20.805Z,6.69
2022-11-25T16:37:49.768Z,6.69
2022-11-25T16:40:19.484Z,6.68
2022-11-25T16:42:50.320Z,6.67
2022-11-25T16:45:25.434Z,6.67
2022-11-25T16:47:54.258Z,6.68
2022-11-25T16:50:23.775Z,6.69
2022-11-25T16:52:52.091Z,6.69
2022-11-25T16:55:27.568Z,6.70
2022-11-25T16:57:55.923Z,6.71
2022-11-25T17:00:24.188Z,6.73
2022-11-25T17:02:52.497Z,6.75
2022-11-25T17:05:23.989Z,6.75
2022-11-25T17:07:52.705Z,6.75
2022-11-25T17:10:21.807Z,6.75
2022-11-25T17:12:50.631Z,6.74
2022-11-25T17:15:25.060Z,6.74
2022-11-25T17:17:53.429Z,6.70
2022-11-25T17:20:24.955Z,6.68
2022-11-25T17:22:54.489Z,6.65
2022-11-25T17:25:25.721Z,6.63
2022-11-25T17:27:55.654Z,6.62
2022-11-25T17:30:27.598Z,6.63
2022-11-25T17:33:03.713Z,6.67
2022-11-25T17:35:31.905Z,6.70
2022-11-25T17:38:01.182Z,6.70
2022-11-25T17:40:29.571Z,6.73
2022-11-25T17:42:57.810Z,6.74
2022-11-25T17:45:26.046Z,6.74
2022-11-25T17:47:54.291Z,6.73
2022-11-25T17:50:25.765Z,6.73
2022-11-25T17:52:54.016Z,6.71
2022-11-25T17:55:23.069Z,6.70
2022-11-25T17:57:51.967Z,6.69
2022-11-25T18:00:22.252Z,6.62
2022-11-25T18:02:51.151Z,6.56
2022-11-25T18:05:25.360Z,6.52
2022-11-25T18:07:54.442Z,6.49
2022-11-25T18:10:26.685Z,6.48
2022-11-25T18:12:57.351Z,6.46
2022-11-25T18:15:29.648Z,6.45
2022-11-25T18:18:01.818Z,6.43
2022-11-25T18:20:32.838Z,6.36
2022-11-25T18:23:01.207Z,6.36
2022-11-25T18:25:34.101Z,6.37
2022-11-25T18:28:04.578Z,6.38
2022-11-25T18:30:35.800Z,6.36
2022-11-25T18:33:06.424Z,6.35
2022-11-25T18:35:36.748Z,6.33
2022-11-25T18:38:06.609Z,6.31
2022-11-25T18:40:39.761Z,6.25
2022-11-25T18:43:14.989Z,6.20
2022-11-25T18:45:43.853Z,6.15
2022-11-25T18:48:18.401Z,6.13
2022-11-25T18:50:47.825Z,6.14
2022-11-25T18:53:16.673Z,6.14
2022-11-25T18:55:46.089Z,6.13
2022-11-25T18:58:18.614Z,6.15
2022-11-25T19:00:48.789Z,6.37
2022-11-25T19:03:20.150Z,6.36
2022-11-25T19:05:49.094Z,6.39
2022-11-25T19:08:18.872Z,6.54
2022-11-25T19:10:48.499Z,6.51
2022-11-25T19:13:36.708Z,6.46
2022-11-25T19:16:13.765Z,6.39
2022-11-25T19:18:45.379Z,6.37
2022-11-25T19:21:19.222Z,6.34
2022-11-25T19:23:48.000Z,6.31
2022-11-25T19:26:33.729Z,6.29
2022-11-25T19:29:08.047Z,6.29
2022-11-25T19:31:36.416Z,6.31
2022-11-25T19:34:05.025Z,6.38
2022-11-25T19:36:35.307Z,6.49
2022-11-25T19:39:03.652Z,6.59
2022-11-25T19:41:31.856Z,6.53
2022-11-25T19:44:00.093Z,6.46
2022-11-25T19:46:46.388Z,6.41
2022-11-25T19:49:19.999Z,6.48
2022-11-25T19:51:48.988Z,6.51
2022-11-25T19:54:19.082Z,6.47
2022-11-25T19:56:47.939Z,6.40
2022-11-25T19:59:16.144Z,6.33
2022-11-25T20:01:46.345Z,6.28
2022-11-25T20:04:20.922Z,6.23
2022-11-25T20:06:49.932Z,6.19
2022-11-25T20:09:18.110Z,6.16
2022-11-25T20:11:47.644Z,6.13
2022-11-25T20:14:15.787Z,6.22
2022-11-25T20:16:44.056Z,6.29
2022-11-25T20:19:17.825Z,6.26
2022-11-25T20:21:46.661Z,6.23
2022-11-25T20:24:18.748Z,6.24
2022-11-25T20:26:48.903Z,6.26
2022-11-25T20:29:24.690Z,6.26
2022-11-25T20:31:56.174Z,6.24
2022-11-25T20:34:24.978Z,6.20
2022-11-25T20:36:53.289Z,6.21
2022-11-25T20:39:21.645Z,6.22
2022-11-25T20:41:52.690Z,6.22
2022-11-25T20:44:21.437Z,6.20
2022-11-25T20:46:50.006Z,6.21
2022-11-25T20:49:29.604Z,6.25
2022-11-25T20:51:57.964Z,6.26
2022-11-25T21:07:13.323Z,6.16
2022-11-25T21:09:51.616Z,6.20
2022-11-25T21:12:19.895Z,6.22
2022-11-25T21:14:48.164Z,6.26
2022-11-25T21:17:16.494Z,6.29
2022-11-25T21:19:45.132Z,6.33
2022-11-25T21:22:15.030Z,6.37
2022-11-25T21:24:44.722Z,6.40
2022-11-25T21:27:17.459Z,6.44
2022-11-25T21:29:46.298Z,6.48
2022-11-25T21:32:23.247Z,6.49
2022-11-25T21:34:51.788Z,6.49
2022-11-25T21:37:29.797Z,6.50
2022-11-25T21:39:59.274Z,6.52
2022-11-25T21:42:29.909Z,6.54
2022-11-25T21:44:58.283Z,6.56
2022-11-25T21:47:29.578Z,6.57
2022-11-25T21:49:58.237Z,6.58
2022-11-25T21:52:26.448Z,6.56
2022-11-25T21:54:54.684Z,6.54
2022-11-25T21:57:28.501Z,6.53
2022-11-25T21:59:56.698Z,6.54
2022-11-25T22:02:25.324Z,6.55
2022-11-25T22:04:59.157Z,6.60
2022-11-25T22:07:30.730Z,6.63
2022-11-25T22:09:59.653Z,6.66
2022-11-25T22:12:30.645Z,6.67
2022-11-25T22:14:59.913Z,6.68
2022-11-25T22:17:30.134Z,6.67
2022-11-25T22:19:58.808Z,6.69
2022-11-25T22:22:27.563Z,6.70
2022-11-25T22:24:55.794Z,6.71
2022-11-25T22:27:36.364Z,6.72
2022-11-25T22:30:05.905Z,6.73
2022-11-25T22:32:34.133Z,6.75
2022-11-25T22:35:02.298Z,6.76
2022-11-25T22:37:31.328Z,6.75
2022-11-25T22:39:59.542Z,6.75
2022-11-25T22:42:31.231Z,6.75
2022-11-25T22:45:02.309Z,6.76
2022-11-25T22:47:49.408Z,6.77
2022-11-25T22:50:33.317Z,6.80
2022-11-25T22:53:02.009Z,6.83
2022-11-25T22:55:32.392Z,6.84
2022-11-25T22:58:01.937Z,6.84
2022-11-25T23:00:36.373Z,6.85
2022-11-25T23:03:07.053Z,6.87
2022-11-25T23:05:37.223Z,6.89
2022-11-25T23:08:16.833Z,6.92
2022-11-25T23:10:45.956Z,6.92
2022-11-25T23:13:17.120Z,6.92
2022-11-25T23:15:49.039Z,6.92
2022-11-25T23:18:26.316Z,6.93
2022-11-25T23:20:55.499Z,6.93
2022-11-25T23:23:29.357Z,6.94
2022-11-25T23:25:58.204Z,6.94
2022-11-25T23:28:26.682Z,6.95
2022-11-25T23:30:57.139Z,6.97
2022-11-25T23:33:31.617Z,6.98
2022-11-25T23:36:04.768Z,6.94
2022-11-25T23:38:42.323Z,6.92
2022-11-25T23:41:18.983Z,6.95
2022-11-25T23:43:47.434Z,6.98
2022-11-25T23:46:18.593Z,6.95
2022-11-25T23:48:54.924Z,6.91
2022-11-25T23:51:24.648Z,6.89
2022-11-25T23:53:53.573Z,6.87
2022-11-25T23:56:23.076Z,6.86
2022-11-25T23:58:51.339Z,6.87
